createdAt,value
2018-04-08T00:02:02.752Z,21.93
2018-04-08T00:04:31.053Z,21.50
2018-04-08T00:06:59.695Z,23.37
2018-04-08T00:09:29.415Z,23.53
2018-04-08T00:11:58.504Z,23.63
2018-04-08T00:14:27.563Z,20.93
2018-04-08T00:16:56.556Z,21.67
2018-04-08T00:19:24.860Z,23.13
2018-04-08T00:21:53.148Z,21.93
2018-04-08T00:24:22.089Z,27.00
2018-04-08T00:26:50.386Z,23.77
2018-04-08T00:29:18.752Z,25.43
2018-04-08T00:31:47.068Z,26.67
2018-04-08T00:34:15.359Z,27.33
2018-04-08T00:36:43.639Z,26.03
2018-04-08T00:39:12.703Z,24.90
2018-04-08T00:41:40.980Z,24.37
2018-04-08T00:44:09.264Z,25.53
2018-04-08T00:46:37.925Z,29.07
2018-04-08T00:49:06.199Z,24.07
2018-04-08T00:51:35.032Z,22.10
2018-04-08T00:54:20.988Z,26.30
2018-04-08T00:56:49.291Z,24.50
2018-04-08T00:59:17.640Z,27.50
2018-04-08T01:01:45.923Z,23.07
2018-04-08T01:04:14.231Z,28.03
2018-04-08T01:06:42.512Z,26.43
2018-04-08T01:09:10.781Z,27.90
2018-04-08T01:11:39.159Z,25.57
2018-04-08T01:14:07.440Z,29.37
2018-04-08T01:16:36.008Z,25.57
2018-04-08T01:19:04.983Z,22.53
2018-04-08T01:21:33.376Z,26.90
2018-04-08T01:24:02.369Z,27.33
2018-04-08T01:26:30.752Z,23.93
2018-04-08T01:28:59.020Z,22.60
2018-04-08T01:31:27.300Z,35.93
2018-04-08T01:33:55.685Z,35.33
2018-04-08T01:36:23.998Z,33.43
2018-04-08T01:38:52.348Z,23.27
2018-04-08T01:41:20.716Z,25.33
2018-04-08T01:43:48.993Z,23.80
2018-04-08T01:46:17.264Z,23.23
2018-04-08T01:48:45.558Z,27.23
2018-04-08T01:51:13.925Z,25.07
2018-04-08T01:53:42.617Z,23.17
2018-04-08T01:56:11.735Z,28.50
2018-04-08T01:58:40.085Z,24.47
2018-04-08T02:01:10.001Z,32.90
2018-04-08T02:03:38.288Z,23.40
2018-04-08T02:06:06.584Z,28.40
2018-04-08T02:08:35.348Z,21.23
2018-04-08T02:11:03.616Z,34.87
2018-04-08T02:13:32.045Z,30.17
2018-04-08T02:16:00.318Z,25.03
2018-04-08T02:18:28.709Z,33.67
2018-04-08T02:20:57.511Z,38.30
2018-04-08T02:23:26.556Z,25.23
2018-04-08T02:25:54.829Z,35.40
2018-04-08T02:28:23.112Z,28.10
2018-04-08T02:30:51.402Z,26.27
2018-04-08T02:33:19.665Z,29.83
2018-04-08T02:35:47.941Z,28.40
2018-04-08T02:38:16.241Z,23.90
2018-04-08T02:40:44.536Z,31.63
2018-04-08T02:43:13.228Z,28.23
2018-04-08T02:45:42.282Z,34.87
2018-04-08T02:48:11.915Z,28.23
2018-04-08T02:50:40.202Z,33.23
2018-04-08T02:53:08.535Z,31.83
2018-04-08T02:55:36.806Z,31.00
2018-04-08T02:58:05.299Z,34.77
2018-04-08T03:00:33.588Z,32.33
2018-04-08T03:03:02.545Z,32.50
2018-04-08T03:05:31.592Z,29.77
2018-04-08T03:07:59.864Z,41.10
2018-04-08T03:10:28.960Z,29.40
2018-04-08T03:12:57.647Z,28.87
2018-04-08T03:15:26.123Z,31.43
2018-04-08T03:17:54.408Z,30.30
2018-04-08T03:20:22.853Z,32.53
2018-04-08T03:22:51.249Z,34.60
2018-04-08T03:25:19.604Z,30.90
2018-04-08T03:27:47.867Z,30.63
2018-04-08T03:30:16.940Z,32.53
2018-04-08T03:32:45.205Z,27.93
2018-04-08T03:35:13.491Z,34.37
2018-04-08T03:37:41.875Z,27.57
2018-04-08T03:40:10.673Z,37.40
2018-04-08T03:42:39.329Z,32.90
2018-04-08T03:45:07.612Z,32.20
2018-04-08T03:47:35.893Z,26.23
2018-04-08T03:50:04.600Z,28.70
2018-04-08T03:52:33.299Z,33.73
2018-04-08T03:55:01.572Z,30.63
2018-04-08T03:57:29.857Z,33.77
2018-04-08T03:59:58.927Z,30.57
2018-04-08T04:02:27.196Z,28.63
2018-04-08T04:04:55.461Z,32.67
2018-04-08T04:07:23.750Z,31.80
2018-04-08T04:09:52.027Z,50.20
2018-04-08T04:12:20.296Z,33.73
2018-04-08T04:14:48.590Z,30.83
2018-04-08T04:17:16.967Z,25.20
2018-04-08T04:20:02.939Z,29.13
2018-04-08T04:22:49.232Z,30.43
2018-04-08T04:28:32.308Z,27.97
2018-04-08T04:31:00.598Z,27.80
2018-04-08T04:33:29.789Z,31.67
2018-04-08T04:35:58.084Z,33.03
2018-04-08T04:38:26.372Z,31.00
2018-04-08T04:40:55.407Z,29.40
2018-04-08T04:43:23.708Z,26.83
2018-04-08T04:45:52.103Z,31.77
2018-04-08T04:48:20.551Z,30.70
2018-04-08T04:50:48.848Z,35.83
2018-04-08T04:53:17.197Z,42.63
2018-04-08T04:55:45.459Z,25.73
2018-04-08T04:58:14.067Z,26.93
2018-04-08T05:00:42.333Z,29.30
2018-04-08T05:03:10.596Z,27.50
2018-04-08T05:05:39.693Z,35.90
2018-04-08T05:08:08.728Z,31.27
2018-04-08T05:10:37.600Z,34.80
2018-04-08T05:13:06.016Z,35.77
2018-04-08T05:15:34.272Z,33.70
2018-04-08T05:18:02.864Z,33.80
2018-04-08T05:20:31.227Z,28.43
2018-04-08T05:22:59.516Z,34.70
2018-04-08T05:25:28.500Z,28.20
2018-04-08T05:27:57.377Z,30.27
2018-04-08T05:30:25.657Z,23.30
2018-04-08T05:32:53.934Z,28.90
2018-04-08T05:35:22.767Z,28.73
2018-04-08T05:37:51.548Z,35.60
2018-04-08T05:40:20.943Z,33.77
2018-04-08T05:42:49.221Z,27.87
2018-04-08T05:45:17.489Z,28.50
2018-04-08T05:47:45.968Z,27.27
2018-04-08T05:50:14.252Z,30.47
2018-04-08T05:52:42.529Z,32.07
2018-04-08T05:55:10.904Z,35.70
2018-04-08T05:57:39.321Z,34.43
2018-04-08T06:00:07.668Z,36.07
2018-04-08T06:02:36.276Z,28.67
2018-04-08T06:05:04.764Z,35.60
2018-04-08T06:07:33.052Z,36.93
2018-04-08T06:10:01.417Z,30.43
2018-04-08T06:12:30.204Z,32.93
2018-04-08T06:14:58.854Z,33.50
2018-04-08T06:17:27.174Z,34.37
2018-04-08T06:19:55.443Z,26.60
2018-04-08T06:22:23.712Z,27.00
2018-04-08T06:24:52.196Z,30.33
2018-04-08T06:27:21.296Z,31.67
2018-04-08T06:29:49.574Z,29.23
2018-04-08T06:32:17.894Z,33.90
2018-04-08T06:34:46.937Z,32.77
2018-04-08T06:37:15.243Z,30.00
2018-04-08T06:39:44.316Z,36.17
2018-04-08T06:42:12.604Z,35.57
2018-04-08T06:44:40.927Z,37.23
2018-04-08T06:47:09.992Z,32.97
2018-04-08T06:49:38.480Z,28.67
2018-04-08T06:52:07.032Z,28.70
2018-04-08T06:54:35.412Z,29.90
2018-04-08T06:57:03.716Z,29.77
2018-04-08T06:59:32.264Z,31.83
2018-04-08T07:02:00.565Z,30.00
2018-04-08T07:04:28.855Z,38.60
2018-04-08T07:06:57.547Z,29.33
2018-04-08T07:09:26.407Z,29.20
2018-04-08T07:11:54.692Z,31.40
2018-04-08T07:14:23.018Z,26.50
2018-04-08T07:16:52.078Z,33.63
2018-04-08T07:19:20.690Z,28.90
2018-04-08T07:21:49.783Z,30.83
2018-04-08T07:24:18.307Z,26.53
2018-04-08T07:26:46.581Z,27.37
2018-04-08T07:29:14.937Z,27.70
2018-04-08T07:31:44.403Z,30.33
2018-04-08T07:34:12.981Z,25.87
2018-04-08T07:36:41.875Z,29.67
2018-04-08T07:39:10.316Z,32.77
2018-04-08T07:41:39.337Z,38.00
2018-04-08T07:44:07.847Z,27.10
2018-04-08T07:46:36.115Z,22.70
2018-04-08T07:49:04.411Z,23.63
2018-04-08T07:51:34.492Z,23.87
2018-04-08T07:54:02.805Z,30.60
2018-04-08T07:56:31.199Z,26.47
2018-04-08T07:58:59.505Z,26.93
2018-04-08T08:01:27.784Z,28.00
2018-04-08T08:03:56.092Z,24.87
2018-04-08T08:06:24.649Z,24.50
2018-04-08T08:08:52.930Z,22.63
2018-04-08T08:11:21.632Z,24.23
2018-04-08T08:13:49.956Z,28.77
2018-04-08T08:16:18.260Z,26.53
2018-04-08T08:18:47.316Z,21.40
2018-04-08T08:21:15.624Z,22.77
2018-04-08T08:23:45.118Z,28.27
2018-04-08T08:26:13.763Z,27.13
2018-04-08T08:28:42.092Z,24.70
2018-04-08T08:31:11.148Z,33.87
2018-04-08T08:33:39.425Z,28.93
2018-04-08T08:36:07.717Z,26.30
2018-04-08T08:38:36.288Z,21.50
2018-04-08T08:41:05.376Z,24.93
2018-04-08T08:43:33.660Z,23.07
2018-04-08T08:46:01.963Z,28.30
2018-04-08T08:48:30.284Z,20.80
2018-04-08T08:50:58.580Z,22.30
2018-04-08T08:53:26.986Z,29.63
2018-04-08T08:55:55.270Z,29.80
2018-04-08T08:58:23.561Z,25.10
2018-04-08T09:00:51.968Z,27.13
2018-04-08T09:03:21.016Z,22.80
2018-04-08T09:05:49.416Z,24.33
2018-04-08T09:08:17.708Z,23.33
2018-04-08T09:10:47.271Z,25.40
2018-04-08T09:13:16.061Z,25.97
2018-04-08T09:15:44.344Z,37.27
2018-04-08T09:18:12.979Z,36.67
2018-04-08T09:23:57.547Z,26.17
2018-04-08T09:26:26.643Z,23.07
2018-04-08T09:28:55.711Z,26.10
2018-04-08T09:31:23.993Z,32.23
2018-04-08T09:33:52.513Z,23.30
2018-04-08T09:36:21.587Z,21.27
2018-04-08T09:38:49.880Z,20.40
2018-04-08T09:41:18.955Z,25.07
2018-04-08T09:43:47.285Z,25.13
2018-04-08T09:46:15.598Z,24.93
2018-04-08T09:48:43.917Z,23.60
2018-04-08T09:51:12.963Z,22.03
2018-04-08T09:53:41.273Z,20.13
2018-04-08T09:56:10.132Z,22.70
2018-04-08T09:58:39.010Z,22.67
2018-04-08T10:01:26.746Z,24.10
2018-04-08T10:03:55.904Z,20.73
2018-04-08T10:06:24.311Z,34.80
2018-04-08T10:08:52.616Z,27.30
2018-04-08T10:11:21.613Z,19.77
2018-04-08T10:13:49.908Z,21.73
2018-04-08T10:16:18.199Z,22.03
2018-04-08T10:18:46.513Z,19.83
2018-04-08T10:21:14.801Z,20.63
2018-04-08T10:23:43.092Z,20.00
2018-04-08T10:26:11.837Z,28.03
2018-04-08T11:59:54.018Z,21.93
2018-04-08T12:02:22.818Z,20.03
2018-04-08T12:04:51.118Z,16.10
2018-04-08T12:07:19.612Z,19.53
2018-04-08T12:09:47.894Z,22.17
2018-04-08T12:12:16.171Z,17.43
2018-04-08T12:14:45.329Z,17.10
2018-04-08T12:17:13.646Z,18.83
2018-04-08T12:19:41.951Z,23.03
2018-04-08T12:22:11.033Z,21.90
2018-04-08T12:24:39.328Z,21.63
2018-04-08T12:27:09.290Z,19.23
2018-04-08T12:29:37.665Z,21.97
2018-04-08T12:32:05.949Z,20.17
2018-04-08T12:34:36.962Z,19.43
2018-04-08T12:37:05.202Z,18.00
2018-04-08T12:39:34.265Z,21.17
2018-04-08T12:42:02.636Z,20.83
2018-04-08T12:44:31.127Z,19.17
2018-04-08T12:46:59.427Z,14.93
2018-04-08T12:49:27.737Z,17.60
2018-04-08T12:51:57.306Z,14.40
2018-04-08T12:54:25.592Z,11.77
2018-04-08T12:56:54.365Z,14.93
2018-04-08T12:59:24.060Z,13.20
2018-04-08T13:01:53.049Z,19.20
2018-04-08T13:04:23.392Z,16.87
2018-04-08T13:06:51.664Z,19.23
2018-04-08T13:09:20.051Z,15.40
2018-04-08T13:11:48.336Z,12.40
2018-04-08T13:14:16.654Z,14.70
2018-04-08T13:16:46.352Z,14.10
2018-04-08T13:19:14.651Z,21.43
2018-04-08T13:21:43.709Z,14.30
2018-04-08T13:24:14.200Z,13.90
2018-04-08T13:26:42.470Z,15.23
2018-04-08T13:29:12.127Z,15.17
2018-04-08T13:31:41.065Z,9.60
2018-04-08T13:34:10.320Z,14.73
2018-04-08T13:36:38.700Z,13.77
2018-04-08T13:39:07.009Z,12.40
2018-04-08T13:41:36.376Z,11.57
2018-04-08T13:44:06.579Z,11.53
2018-04-08T13:46:34.857Z,13.97
2018-04-08T13:49:03.156Z,11.30
2018-04-08T13:51:31.524Z,12.37
2018-04-08T13:54:00.835Z,8.80
2018-04-08T13:56:30.676Z,10.50
2018-04-08T13:59:01.578Z,11.30
2018-04-08T14:01:29.908Z,14.33
2018-04-08T14:03:58.950Z,9.20
2018-04-08T14:06:27.233Z,13.63
2018-04-08T14:08:55.536Z,10.40
2018-04-08T14:11:24.172Z,9.37
2018-04-08T14:13:53.534Z,7.57
2018-04-08T14:16:21.829Z,12.20
2018-04-08T14:18:50.977Z,9.87
2018-04-08T14:21:20.073Z,8.83
2018-04-08T14:23:48.869Z,8.33
2018-04-08T14:26:17.641Z,11.33
2018-04-08T14:28:45.978Z,13.33
2018-04-08T14:31:15.218Z,9.97
2018-04-08T14:33:43.699Z,8.73
2018-04-08T14:36:11.992Z,7.00
2018-04-08T14:38:40.285Z,11.53
2018-04-08T14:41:08.831Z,17.03
2018-04-08T14:43:37.952Z,11.68
2018-04-08T14:46:06.240Z,10.33
2018-04-08T14:48:35.736Z,9.57
2018-04-08T14:51:06.889Z,10.30
2018-04-08T14:53:36.035Z,11.27
2018-04-08T14:56:05.212Z,21.03
2018-04-08T14:58:35.341Z,9.83
2018-04-08T15:01:04.944Z,9.37
2018-04-08T15:03:34.012Z,8.13
2018-04-08T15:06:02.328Z,6.13
2018-04-08T15:08:31.957Z,12.50
2018-04-08T15:11:00.249Z,8.63
2018-04-08T15:13:28.839Z,10.00
2018-04-08T15:15:57.137Z,8.00
2018-04-08T15:18:26.229Z,10.13
2018-04-08T15:20:54.533Z,7.87
2018-04-08T15:23:22.800Z,8.23
2018-04-08T15:25:51.274Z,9.60
2018-04-08T15:28:19.604Z,10.63
2018-04-08T15:30:47.872Z,7.77
2018-04-08T15:33:16.159Z,10.93
2018-04-08T15:35:45.288Z,11.87
2018-04-08T15:38:13.591Z,9.83
2018-04-08T15:40:41.900Z,10.57
2018-04-08T15:43:11.022Z,7.47
2018-04-08T15:45:39.302Z,9.53
2018-04-08T15:48:07.607Z,19.03
2018-04-08T15:50:35.989Z,8.40
2018-04-08T15:53:05.463Z,8.40
2018-04-08T15:55:33.735Z,11.07
2018-04-08T15:58:02.068Z,16.43
2018-04-08T16:00:31.260Z,12.90
2018-04-08T16:02:59.603Z,9.87
2018-04-08T16:05:27.887Z,10.73
2018-04-08T16:07:56.177Z,13.20
2018-04-08T16:10:24.753Z,8.37
2018-04-08T16:12:53.623Z,13.23
2018-04-08T16:15:21.968Z,9.70
2018-04-08T16:17:50.241Z,11.93
2018-04-08T16:20:18.525Z,9.93
2018-04-08T16:22:48.709Z,10.03
2018-04-08T16:25:17.028Z,9.10
2018-04-08T16:27:46.669Z,9.70
2018-04-08T16:30:14.947Z,9.00
2018-04-08T16:32:43.252Z,8.20
2018-04-08T16:35:13.005Z,11.37
2018-04-08T16:37:41.508Z,7.40
2018-04-08T16:40:10.857Z,8.80
2018-04-08T16:42:39.392Z,10.37
2018-04-08T16:45:09.315Z,13.33
2018-04-08T16:47:38.689Z,8.93
2018-04-08T16:50:07.807Z,9.80
2018-04-08T16:52:36.858Z,7.70
2018-04-08T16:55:05.419Z,15.60
2018-04-08T16:57:33.810Z,11.00
2018-04-08T17:00:03.128Z,9.33
2018-04-08T17:02:32.410Z,15.30
2018-04-08T17:05:00.884Z,14.27
2018-04-08T17:07:30.361Z,14.30
2018-04-08T17:09:59.824Z,9.93
2018-04-08T17:12:28.200Z,11.30
2018-04-08T17:14:57.219Z,13.93
2018-04-08T17:17:25.525Z,11.83
2018-04-08T17:19:54.651Z,11.10
2018-04-08T17:22:23.016Z,10.77
2018-04-08T17:24:51.329Z,14.37
2018-04-08T17:27:19.608Z,12.40
2018-04-08T17:29:48.610Z,11.47
2018-04-08T17:32:16.928Z,13.47
2018-04-08T17:34:45.248Z,9.53
2018-04-08T17:37:13.648Z,14.67
2018-04-08T17:39:43.542Z,12.13
2018-04-08T17:42:13.208Z,10.23
2018-04-08T17:44:42.504Z,8.60
2018-04-08T17:47:11.972Z,11.27
2018-04-08T17:49:40.481Z,11.30
2018-04-08T17:52:08.949Z,8.67
2018-04-08T17:54:37.617Z,10.67
2018-04-08T17:57:06.460Z,12.87
2018-04-08T17:59:34.955Z,13.70
2018-04-08T18:02:03.260Z,10.83
2018-04-08T18:04:31.563Z,11.50
2018-04-08T18:07:00.955Z,10.30
2018-04-08T18:09:30.062Z,15.77
2018-04-08T18:11:58.572Z,11.73
2018-04-08T18:14:27.730Z,14.57
2018-04-08T18:16:56.371Z,13.37
2018-04-08T18:19:25.709Z,10.13
2018-04-08T18:21:54.179Z,11.30
2018-04-08T18:24:22.563Z,11.73
2018-04-08T18:26:50.878Z,10.13
2018-04-08T18:29:21.664Z,11.93
2018-04-08T18:31:50.114Z,14.40
2018-04-08T18:34:19.180Z,11.60
2018-04-08T18:36:47.840Z,10.80
2018-04-08T18:39:16.170Z,10.57
2018-04-08T18:41:45.949Z,17.60
2018-04-08T18:44:15.378Z,14.33
2018-04-08T18:46:44.144Z,13.20
2018-04-08T18:49:12.436Z,9.27
2018-04-08T18:51:41.674Z,9.70
2018-04-08T18:54:12.084Z,15.13
2018-04-08T18:56:41.196Z,13.73
2018-04-08T18:59:10.656Z,9.73
2018-04-08T19:01:39.108Z,13.63
2018-04-08T19:04:07.436Z,14.77
2018-04-08T19:06:36.151Z,19.20
2018-04-08T19:09:05.946Z,17.00
2018-04-08T19:11:35.347Z,11.47
2018-04-08T19:14:04.258Z,10.60
2018-04-08T19:16:33.653Z,9.33
2018-04-08T19:19:02.799Z,15.90
2018-04-08T19:21:31.184Z,19.27
2018-04-08T19:23:59.466Z,11.47
2018-04-08T19:26:29.216Z,11.67
2018-04-08T19:28:58.301Z,13.50
2018-04-08T19:31:26.939Z,11.47
2018-04-08T19:33:56.061Z,15.20
2018-04-08T19:36:25.336Z,15.13
2018-04-08T19:38:55.271Z,13.57
2018-04-08T19:41:23.599Z,12.67
2018-04-08T19:43:53.426Z,13.67
2018-04-08T19:46:22.853Z,18.37
2018-04-08T19:48:51.143Z,14.43
2018-04-08T19:51:20.164Z,15.00
2018-04-08T19:53:48.469Z,10.07
2018-04-08T19:56:17.548Z,14.80
2018-04-08T19:58:46.484Z,12.30
2018-04-08T20:01:14.785Z,14.30
2018-04-08T20:03:44.733Z,16.37
2018-04-08T20:06:13.240Z,15.97
2018-04-08T20:08:42.407Z,21.07
2018-04-08T20:11:11.086Z,16.40
2018-04-08T20:13:39.712Z,15.37
2018-04-08T20:16:09.484Z,16.73
2018-04-08T20:18:39.405Z,17.40
2018-04-08T20:21:08.511Z,17.50
2018-04-08T20:23:36.869Z,17.00
2018-04-08T20:26:05.262Z,16.53
2018-04-08T20:28:34.351Z,24.53
2018-04-08T20:31:03.121Z,14.30
2018-04-08T20:33:31.537Z,16.67
2018-04-08T20:36:00.798Z,16.03
2018-04-08T20:38:29.329Z,15.37
2018-04-08T20:40:58.163Z,15.20
2018-04-08T20:43:27.297Z,19.97
2018-04-08T20:45:55.780Z,19.03
2018-04-08T20:48:24.072Z,18.23
2018-04-08T20:50:52.372Z,15.30
2018-04-08T20:53:22.305Z,25.20
2018-04-08T20:55:50.595Z,19.67
2018-04-08T20:58:19.127Z,24.93
2018-04-08T21:00:47.585Z,26.57
2018-04-08T21:03:15.890Z,24.50
2018-04-08T21:05:44.189Z,18.63
2018-04-08T21:08:13.257Z,23.13
2018-04-08T21:10:44.072Z,24.83
2018-04-08T21:13:12.615Z,21.90
2018-04-08T21:15:41.666Z,25.93
2018-04-08T21:18:09.963Z,23.73
2018-04-08T21:20:38.280Z,20.10
2018-04-08T21:23:06.607Z,23.80
2018-04-08T21:25:34.934Z,22.80
2018-04-08T21:28:03.634Z,28.73
2018-04-08T21:30:32.260Z,22.53
2018-04-08T21:33:01.473Z,21.20
2018-04-08T21:35:29.770Z,25.50
2018-04-08T21:37:58.829Z,21.90
2018-04-08T21:40:27.125Z,27.77
2018-04-08T21:42:55.415Z,28.07
2018-04-08T21:45:25.345Z,20.10
2018-04-08T21:47:53.769Z,29.80
2018-04-08T21:50:22.385Z,29.33
2018-04-08T21:52:50.705Z,22.73
2018-04-08T21:55:18.999Z,27.33
2018-04-08T21:57:47.361Z,22.90
2018-04-08T22:00:15.681Z,24.90
2018-04-08T22:02:43.970Z,23.90
2018-04-08T22:05:13.171Z,27.60
2018-04-08T22:07:41.467Z,24.27
2018-04-08T22:10:09.779Z,25.83
2018-04-08T22:12:38.174Z,21.90
2018-04-08T22:15:06.726Z,28.30
2018-04-08T22:17:36.820Z,25.93
2018-04-08T22:20:05.928Z,24.43
2018-04-08T22:22:35.004Z,25.17
2018-04-08T22:25:03.307Z,19.63
2018-04-08T22:27:32.396Z,29.83
2018-04-08T22:30:01.442Z,27.83
2018-04-08T22:32:30.064Z,32.03
2018-04-08T22:34:58.698Z,25.23
2018-04-08T22:37:26.984Z,26.20
2018-04-08T22:39:55.289Z,23.90
2018-04-08T22:42:23.620Z,24.20
2018-04-08T22:44:54.014Z,28.47
2018-04-08T22:47:22.514Z,24.03
2018-04-08T22:49:51.594Z,22.90
2018-04-08T22:52:19.930Z,21.37
2018-04-08T22:54:48.222Z,19.27
2018-04-08T22:57:17.190Z,30.40
2018-04-08T22:59:47.173Z,24.40
2018-04-08T23:02:16.969Z,23.73
2018-04-08T23:04:45.260Z,22.13
2018-04-08T23:07:16.407Z,25.83
2018-04-08T23:09:45.508Z,25.57
2018-04-08T23:12:14.591Z,25.77
2018-04-08T23:14:42.891Z,27.33
2018-04-08T23:17:11.957Z,26.73
2018-04-08T23:19:40.676Z,25.40
2018-04-08T23:22:09.829Z,30.67
2018-04-08T23:24:38.128Z,26.83
2018-04-08T23:27:06.416Z,28.60
2018-04-08T23:29:35.516Z,26.40
2018-04-08T23:32:04.612Z,24.63
2018-04-08T23:34:32.940Z,29.60
2018-04-08T23:37:01.309Z,28.93
2018-04-08T23:39:29.612Z,31.20
2018-04-08T23:41:57.895Z,29.37
2018-04-08T23:44:27.364Z,24.17
2018-04-08T23:46:55.691Z,27.73
2018-04-08T23:49:23.981Z,24.90
2018-04-08T23:51:52.277Z,26.47
2018-04-08T23:54:22.093Z,25.27
2018-04-08T23:56:50.393Z,30.27
2018-04-08T23:59:19.051Z,25.53
